sensor_id;sensor_type;location;lat;lon;timestamp;P1;durP1;ratioP1;P2;durP2;ratioP2
12206;SDS011;6166;42.806;23.408;2022-07-23T00:01:29;6.85;;;6.13;;
12206;SDS011;6166;42.806;23.408;2022-07-23T00:03:56;6.63;;;6.03;;
12206;SDS011;6166;42.806;23.408;2022-07-23T00:06:23;9.40;;;6.78;;
12206;SDS011;6166;42.806;23.408;2022-07-23T00:08:50;8.50;;;5.75;;
12206;SDS011;6166;42.806;23.408;2022-07-23T00:11:17;5.97;;;5.47;;
12206;SDS011;6166;42.806;23.408;2022-07-23T00:13:45;9.88;;;6.00;;
12206;SDS011;6166;42.806;23.408;2022-07-23T00:16:12;7.82;;;5.72;;
12206;SDS011;6166;42.806;23.408;2022-07-23T00:18:39;6.30;;;5.70;;
12206;SDS011;6166;42.806;23.408;2022-07-23T00:21:06;9.73;;;6.10;;
12206;SDS011;6166;42.806;23.408;2022-07-23T00:23:33;6.40;;;5.18;;
12206;SDS011;6166;42.806;23.408;2022-07-23T00:26:00;6.10;;;5.50;;
12206;SDS011;6166;42.806;23.408;2022-07-23T00:28:26;6.10;;;5.57;;
12206;SDS011;6166;42.806;23.408;2022-07-23T00:30:54;7.97;;;6.18;;
12206;SDS011;6166;42.806;23.408;2022-07-23T00:33:21;7.35;;;5.82;;
12206;SDS011;6166;42.806;23.408;2022-07-23T00:35:48;9.93;;;6.60;;
12206;SDS011;6166;42.806;23.408;2022-07-23T00:38:14;6.88;;;6.10;;
12206;SDS011;6166;42.806;23.408;2022-07-23T00:40:41;7.70;;;6.75;;
12206;SDS011;6166;42.806;23.408;2022-07-23T00:43:08;6.85;;;6.03;;
12206;SDS011;6166;42.806;23.408;2022-07-23T00:45:35;6.07;;;5.57;;
12206;SDS011;6166;42.806;23.408;2022-07-23T00:48:03;5.97;;;5.38;;
12206;SDS011;6166;42.806;23.408;2022-07-23T00:50:30;5.57;;;5.15;;
12206;SDS011;6166;42.806;23.408;2022-07-23T00:52:57;7.32;;;5.55;;
12206;SDS011;6166;42.806;23.408;2022-07-23T00:55:24;6.25;;;5.22;;
12206;SDS011;6166;42.806;23.408;2022-07-23T00:57:50;5.95;;;4.93;;
12206;SDS011;6166;42.806;23.408;2022-07-23T01:00:19;6.05;;;5.38;;
12206;SDS011;6166;42.806;23.408;2022-07-23T01:02:46;7.18;;;5.00;;
12206;SDS011;6166;42.806;23.408;2022-07-23T01:05:14;6.65;;;5.50;;
12206;SDS011;6166;42.806;23.408;2022-07-23T01:07:42;7.85;;;5.68;;
12206;SDS011;6166;42.806;23.408;2022-07-23T01:10:10;6.00;;;5.40;;
12206;SDS011;6166;42.806;23.408;2022-07-23T01:12:51;6.45;;;5.30;;
12206;SDS011;6166;42.806;23.408;2022-07-23T01:15:17;7.80;;;5.78;;
12206;SDS011;6166;42.806;23.408;2022-07-23T01:17:44;7.15;;;5.05;;
12206;SDS011;6166;42.806;23.408;2022-07-23T01:20:11;8.73;;;5.07;;
12206;SDS011;6166;42.806;23.408;2022-07-23T01:22:39;8.02;;;6.05;;
12206;SDS011;6166;42.806;23.408;2022-07-23T01:25:06;6.72;;;5.10;;
12206;SDS011;6166;42.806;23.408;2022-07-23T01:27:34;7.25;;;5.35;;
12206;SDS011;6166;42.806;23.408;2022-07-23T01:30:01;7.35;;;5.47;;
12206;SDS011;6166;42.806;23.408;2022-07-23T01:32:28;6.82;;;5.47;;
12206;SDS011;6166;42.806;23.408;2022-07-23T01:34:55;6.00;;;5.40;;
12206;SDS011;6166;42.806;23.408;2022-07-23T01:37:22;5.80;;;5.30;;
12206;SDS011;6166;42.806;23.408;2022-07-23T01:39:50;5.85;;;5.28;;
12206;SDS011;6166;42.806;23.408;2022-07-23T01:42:17;7.80;;;5.30;;
12206;SDS011;6166;42.806;23.408;2022-07-23T01:44:43;6.22;;;5.28;;
12206;SDS011;6166;42.806;23.408;2022-07-23T01:47:10;8.40;;;5.60;;
12206;SDS011;6166;42.806;23.408;2022-07-23T01:49:37;5.63;;;5.00;;
12206;SDS011;6166;42.806;23.408;2022-07-23T01:52:04;6.82;;;5.28;;
12206;SDS011;6166;42.806;23.408;2022-07-23T01:54:34;6.28;;;5.68;;
12206;SDS011;6166;42.806;23.408;2022-07-23T01:57:02;7.60;;;5.43;;
12206;SDS011;6166;42.806;23.408;2022-07-23T01:59:29;6.55;;;5.35;;
12206;SDS011;6166;42.806;23.408;2022-07-23T02:01:56;6.82;;;5.00;;
12206;SDS011;6166;42.806;23.408;2022-07-23T02:04:24;6.68;;;5.57;;
12206;SDS011;6166;42.806;23.408;2022-07-23T02:06:51;6.78;;;6.15;;
12206;SDS011;6166;42.806;23.408;2022-07-23T02:09:18;5.93;;;5.40;;
12206;SDS011;6166;42.806;23.408;2022-07-23T02:11:45;5.95;;;5.30;;
12206;SDS011;6166;42.806;23.408;2022-07-23T02:14:13;6.25;;;5.65;;
12206;SDS011;6166;42.806;23.408;2022-07-23T02:16:40;6.13;;;5.50;;
12206;SDS011;6166;42.806;23.408;2022-07-23T02:19:07;6.68;;;6.05;;
12206;SDS011;6166;42.806;23.408;2022-07-23T02:21:34;6.82;;;5.97;;
12206;SDS011;6166;42.806;23.408;2022-07-23T02:24:00;6.22;;;5.47;;
12206;SDS011;6166;42.806;23.408;2022-07-23T02:26:27;6.43;;;5.78;;
12206;SDS011;6166;42.806;23.408;2022-07-23T02:32:03;5.88;;;5.30;;
12206;SDS011;6166;42.806;23.408;2022-07-23T02:34:30;7.07;;;6.13;;
12206;SDS011;6166;42.806;23.408;2022-07-23T02:36:57;8.38;;;5.85;;
12206;SDS011;6166;42.806;23.408;2022-07-23T02:39:24;7.07;;;6.47;;
12206;SDS011;6166;42.806;23.408;2022-07-23T02:41:50;6.80;;;6.22;;
12206;SDS011;6166;42.806;23.408;2022-07-23T02:44:17;8.45;;;7.15;;
12206;SDS011;6166;42.806;23.408;2022-07-23T02:46:44;7.25;;;6.55;;
12206;SDS011;6166;42.806;23.408;2022-07-23T02:49:12;10.93;;;6.82;;
12206;SDS011;6166;42.806;23.408;2022-07-23T02:51:38;9.15;;;7.13;;
12206;SDS011;6166;42.806;23.408;2022-07-23T02:54:05;7.32;;;6.60;;
12206;SDS011;6166;42.806;23.408;2022-07-23T02:56:32;8.20;;;7.43;;
12206;SDS011;6166;42.806;23.408;2022-07-23T02:58:59;9.48;;;6.90;;
12206;SDS011;6166;42.806;23.408;2022-07-23T03:01:25;7.95;;;6.95;;
12206;SDS011;6166;42.806;23.408;2022-07-23T03:03:52;9.93;;;7.13;;
12206;SDS011;6166;42.806;23.408;2022-07-23T03:06:20;7.60;;;6.80;;
12206;SDS011;6166;42.806;23.408;2022-07-23T03:08:47;8.60;;;7.80;;
12206;SDS011;6166;42.806;23.408;2022-07-23T03:11:13;8.88;;;7.13;;
12206;SDS011;6166;42.806;23.408;2022-07-23T03:13:40;11.70;;;7.47;;
12206;SDS011;6166;42.806;23.408;2022-07-23T03:16:09;11.45;;;7.28;;
12206;SDS011;6166;42.806;23.408;2022-07-23T03:18:36;7.63;;;6.82;;
12206;SDS011;6166;42.806;23.408;2022-07-23T03:21:03;9.27;;;7.07;;
12206;SDS011;6166;42.806;23.408;2022-07-23T03:23:31;8.05;;;7.20;;
12206;SDS011;6166;42.806;23.408;2022-07-23T03:25:58;8.52;;;7.07;;
12206;SDS011;6166;42.806;23.408;2022-07-23T03:28:25;8.98;;;7.40;;
12206;SDS011;6166;42.806;23.408;2022-07-23T03:30:51;9.48;;;7.40;;
12206;SDS011;6166;42.806;23.408;2022-07-23T03:33:19;9.05;;;7.20;;
12206;SDS011;6166;42.806;23.408;2022-07-23T03:35:46;8.15;;;7.28;;
12206;SDS011;6166;42.806;23.408;2022-07-23T03:38:14;7.90;;;7.03;;
12206;SDS011;6166;42.806;23.408;2022-07-23T03:40:43;8.48;;;6.97;;
12206;SDS011;6166;42.806;23.408;2022-07-23T03:43:09;8.23;;;6.93;;
12206;SDS011;6166;42.806;23.408;2022-07-23T03:45:36;7.30;;;6.50;;
12206;SDS011;6166;42.806;23.408;2022-07-23T03:48:03;8.20;;;6.90;;
12206;SDS011;6166;42.806;23.408;2022-07-23T03:50:30;12.80;;;7.05;;
12206;SDS011;6166;42.806;23.408;2022-07-23T03:52:56;7.30;;;5.88;;
12206;SDS011;6166;42.806;23.408;2022-07-23T03:55:23;9.40;;;7.13;;
12206;SDS011;6166;42.806;23.408;2022-07-23T03:57:51;7.38;;;6.43;;
12206;SDS011;6166;42.806;23.408;2022-07-23T04:00:18;8.63;;;6.70;;
12206;SDS011;6166;42.806;23.408;2022-07-23T04:02:44;8.35;;;6.60;;
12206;SDS011;6166;42.806;23.408;2022-07-23T04:05:11;7.53;;;6.80;;
12206;SDS011;6166;42.806;23.408;2022-07-23T04:07:38;8.40;;;7.22;;
12206;SDS011;6166;42.806;23.408;2022-07-23T04:10:05;9.80;;;6.97;;
12206;SDS011;6166;42.806;23.408;2022-07-23T04:12:32;7.40;;;6.70;;
12206;SDS011;6166;42.806;23.408;2022-07-23T04:15:01;7.70;;;6.72;;
12206;SDS011;6166;42.806;23.408;2022-07-23T04:17:27;7.95;;;7.20;;
12206;SDS011;6166;42.806;23.408;2022-07-23T04:19:54;9.63;;;7.32;;
12206;SDS011;6166;42.806;23.408;2022-07-23T04:22:21;11.65;;;7.32;;
12206;SDS011;6166;42.806;23.408;2022-07-23T04:24:48;8.32;;;6.65;;
12206;SDS011;6166;42.806;23.408;2022-07-23T04:27:15;15.23;;;7.95;;
12206;SDS011;6166;42.806;23.408;2022-07-23T04:29:42;8.88;;;7.05;;
12206;SDS011;6166;42.806;23.408;2022-07-23T04:32:10;8.02;;;7.25;;
12206;SDS011;6166;42.806;23.408;2022-07-23T04:34:37;9.10;;;6.93;;
12206;SDS011;6166;42.806;23.408;2022-07-23T04:37:03;7.78;;;6.97;;
12206;SDS011;6166;42.806;23.408;2022-07-23T04:39:30;8.38;;;7.43;;
12206;SDS011;6166;42.806;23.408;2022-07-23T04:41:57;9.23;;;7.43;;
12206;SDS011;6166;42.806;23.408;2022-07-23T04:44:24;11.60;;;7.75;;
12206;SDS011;6166;42.806;23.408;2022-07-23T04:46:51;9.00;;;8.02;;
12206;SDS011;6166;42.806;23.408;2022-07-23T04:49:22;8.82;;;7.53;;
12206;SDS011;6166;42.806;23.408;2022-07-23T04:51:49;8.57;;;7.00;;
12206;SDS011;6166;42.806;23.408;2022-07-23T04:54:16;8.10;;;7.28;;
12206;SDS011;6166;42.806;23.408;2022-07-23T04:56:43;11.20;;;8.05;;
12206;SDS011;6166;42.806;23.408;2022-07-23T04:59:10;8.50;;;7.60;;
12206;SDS011;6166;42.806;23.408;2022-07-23T05:14:29;12.27;;;8.65;;
12206;SDS011;6166;42.806;23.408;2022-07-23T05:16:56;10.65;;;8.63;;
12206;SDS011;6166;42.806;23.408;2022-07-23T05:19:23;10.35;;;8.48;;
12206;SDS011;6166;42.806;23.408;2022-07-23T05:21:50;9.85;;;8.85;;
12206;SDS011;6166;42.806;23.408;2022-07-23T05:24:16;9.00;;;8.10;;
12206;SDS011;6166;42.806;23.408;2022-07-23T05:26:43;12.45;;;8.35;;
12206;SDS011;6166;42.806;23.408;2022-07-23T05:29:10;8.90;;;8.00;;
12206;SDS011;6166;42.806;23.408;2022-07-23T05:31:38;11.77;;;7.95;;
12206;SDS011;6166;42.806;23.408;2022-07-23T05:34:05;9.52;;;8.07;;
12206;SDS011;6166;42.806;23.408;2022-07-23T05:36:32;10.73;;;7.45;;
12206;SDS011;6166;42.806;23.408;2022-07-23T05:38:59;9.68;;;8.55;;
12206;SDS011;6166;42.806;23.408;2022-07-23T05:41:25;14.27;;;8.77;;
12206;SDS011;6166;42.806;23.408;2022-07-23T05:43:52;9.45;;;8.48;;
12206;SDS011;6166;42.806;23.408;2022-07-23T05:46:19;10.75;;;8.20;;
12206;SDS011;6166;42.806;23.408;2022-07-23T05:48:47;9.70;;;8.15;;
12206;SDS011;6166;42.806;23.408;2022-07-23T05:51:18;11.60;;;8.00;;
12206;SDS011;6166;42.806;23.408;2022-07-23T05:53:46;9.25;;;8.35;;
12206;SDS011;6166;42.806;23.408;2022-07-23T05:56:12;12.27;;;8.15;;
12206;SDS011;6166;42.806;23.408;2022-07-23T05:58:39;9.35;;;8.38;;
12206;SDS011;6166;42.806;23.408;2022-07-23T06:01:06;9.60;;;8.38;;
12206;SDS011;6166;42.806;23.408;2022-07-23T06:03:33;9.27;;;8.35;;
12206;SDS011;6166;42.806;23.408;2022-07-23T06:06:01;9.45;;;8.55;;
12206;SDS011;6166;42.806;23.408;2022-07-23T06:08:27;8.40;;;7.70;;
12206;SDS011;6166;42.806;23.408;2022-07-23T06:10:54;12.18;;;9.02;;
12206;SDS011;6166;42.806;23.408;2022-07-23T06:13:21;10.05;;;7.80;;
12206;SDS011;6166;42.806;23.408;2022-07-23T06:15:48;10.50;;;8.30;;
12206;SDS011;6166;42.806;23.408;2022-07-23T06:18:15;9.05;;;8.18;;
12206;SDS011;6166;42.806;23.408;2022-07-23T06:20:41;9.25;;;8.32;;
12206;SDS011;6166;42.806;23.408;2022-07-23T06:23:10;9.63;;;7.80;;
12206;SDS011;6166;42.806;23.408;2022-07-23T06:25:37;10.25;;;8.07;;
12206;SDS011;6166;42.806;23.408;2022-07-23T06:28:04;9.80;;;7.88;;
12206;SDS011;6166;42.806;23.408;2022-07-23T06:30:31;12.85;;;9.32;;
12206;SDS011;6166;42.806;23.408;2022-07-23T06:32:58;9.65;;;7.75;;
12206;SDS011;6166;42.806;23.408;2022-07-23T06:35:24;10.25;;;7.93;;
12206;SDS011;6166;42.806;23.408;2022-07-23T06:37:51;9.90;;;8.45;;
12206;SDS011;6166;42.806;23.408;2022-07-23T06:40:19;8.95;;;8.05;;
12206;SDS011;6166;42.806;23.408;2022-07-23T06:42:46;9.43;;;8.30;;
12206;SDS011;6166;42.806;23.408;2022-07-23T06:45:18;10.18;;;7.88;;
12206;SDS011;6166;42.806;23.408;2022-07-23T06:47:45;8.88;;;7.97;;
12206;SDS011;6166;42.806;23.408;2022-07-23T06:50:12;9.05;;;7.88;;
12206;SDS011;6166;42.806;23.408;2022-07-23T06:52:39;10.57;;;7.75;;
12206;SDS011;6166;42.806;23.408;2022-07-23T06:55:06;9.30;;;8.30;;
12206;SDS011;6166;42.806;23.408;2022-07-23T06:57:34;13.85;;;8.30;;
12206;SDS011;6166;42.806;23.408;2022-07-23T07:00:01;10.07;;;8.25;;
12206;SDS011;6166;42.806;23.408;2022-07-23T07:02:29;10.48;;;8.80;;
12206;SDS011;6166;42.806;23.408;2022-07-23T07:04:55;9.30;;;8.40;;
12206;SDS011;6166;42.806;23.408;2022-07-23T07:07:22;9.82;;;7.60;;
12206;SDS011;6166;42.806;23.408;2022-07-23T07:09:49;10.75;;;8.10;;
12206;SDS011;6166;42.806;23.408;2022-07-23T07:12:16;9.65;;;8.18;;
12206;SDS011;6166;42.806;23.408;2022-07-23T07:14:44;13.15;;;8.95;;
12206;SDS011;6166;42.806;23.408;2022-07-23T07:17:11;9.38;;;8.38;;
12206;SDS011;6166;42.806;23.408;2022-07-23T07:19:37;10.60;;;9.07;;
12206;SDS011;6166;42.806;23.408;2022-07-23T07:22:04;9.10;;;8.20;;
12206;SDS011;6166;42.806;23.408;2022-07-23T07:24:31;9.60;;;8.32;;
12206;SDS011;6166;42.806;23.408;2022-07-23T07:26:58;10.63;;;8.75;;
12206;SDS011;6166;42.806;23.408;2022-07-23T07:29:24;10.02;;;9.02;;
12206;SDS011;6166;42.806;23.408;2022-07-23T07:31:53;10.10;;;8.45;;
12206;SDS011;6166;42.806;23.408;2022-07-23T07:34:20;9.77;;;8.60;;
12206;SDS011;6166;42.806;23.408;2022-07-23T07:36:47;9.77;;;8.40;;
12206;SDS011;6166;42.806;23.408;2022-07-23T07:39:15;9.32;;;8.38;;
12206;SDS011;6166;42.806;23.408;2022-07-23T07:41:41;11.82;;;8.55;;
12206;SDS011;6166;42.806;23.408;2022-07-23T07:44:08;10.38;;;8.07;;
12206;SDS011;6166;42.806;23.408;2022-07-23T07:46:35;13.07;;;8.70;;
12206;SDS011;6166;42.806;23.408;2022-07-23T07:49:03;9.60;;;8.60;;
12206;SDS011;6166;42.806;23.408;2022-07-23T07:51:30;9.85;;;8.27;;
12206;SDS011;6166;42.806;23.408;2022-07-23T07:53:57;10.48;;;8.23;;
12206;SDS011;6166;42.806;23.408;2022-07-23T07:56:25;8.60;;;7.70;;
12206;SDS011;6166;42.806;23.408;2022-07-23T07:58:52;9.13;;;7.38;;
12206;SDS011;6166;42.806;23.408;2022-07-23T08:01:19;8.23;;;7.43;;
12206;SDS011;6166;42.806;23.408;2022-07-23T08:03:46;8.20;;;7.35;;
12206;SDS011;6166;42.806;23.408;2022-07-23T08:06:14;11.70;;;8.43;;
12206;SDS011;6166;42.806;23.408;2022-07-23T08:08:41;9.73;;;7.75;;
12206;SDS011;6166;42.806;23.408;2022-07-23T08:11:07;8.73;;;7.93;;
12206;SDS011;6166;42.806;23.408;2022-07-23T08:13:34;10.52;;;7.65;;
12206;SDS011;6166;42.806;23.408;2022-07-23T08:16:01;8.60;;;7.70;;
12206;SDS011;6166;42.806;23.408;2022-07-23T08:18:28;8.32;;;7.50;;
12206;SDS011;6166;42.806;23.408;2022-07-23T08:20:55;8.90;;;7.47;;
12206;SDS011;6166;42.806;23.408;2022-07-23T08:23:23;9.80;;;7.75;;
12206;SDS011;6166;42.806;23.408;2022-07-23T08:25:50;9.18;;;7.53;;
12206;SDS011;6166;42.806;23.408;2022-07-23T08:28:16;9.25;;;8.32;;
12206;SDS011;6166;42.806;23.408;2022-07-23T08:30:43;11.73;;;8.40;;
12206;SDS011;6166;42.806;23.408;2022-07-23T08:33:12;8.07;;;7.28;;
12206;SDS011;6166;42.806;23.408;2022-07-23T08:35:42;7.75;;;6.97;;
12206;SDS011;6166;42.806;23.408;2022-07-23T08:38:12;7.25;;;6.57;;
12206;SDS011;6166;42.806;23.408;2022-07-23T08:40:42;7.55;;;6.82;;
12206;SDS011;6166;42.806;23.408;2022-07-23T08:43:11;8.88;;;7.40;;
12206;SDS011;6166;42.806;23.408;2022-07-23T08:45:41;15.15;;;8.43;;
12206;SDS011;6166;42.806;23.408;2022-07-23T08:48:11;10.95;;;6.93;;
12206;SDS011;6166;42.806;23.408;2022-07-23T08:50:40;7.53;;;6.68;;
12206;SDS011;6166;42.806;23.408;2022-07-23T08:53:09;6.85;;;6.00;;
12206;SDS011;6166;42.806;23.408;2022-07-23T08:55:36;6.53;;;5.97;;
12206;SDS011;6166;42.806;23.408;2022-07-23T08:58:04;8.73;;;5.97;;
12206;SDS011;6166;42.806;23.408;2022-07-23T09:00:32;8.65;;;6.55;;
12206;SDS011;6166;42.806;23.408;2022-07-23T09:02:58;9.18;;;6.28;;
12206;SDS011;6166;42.806;23.408;2022-07-23T09:05:25;8.30;;;6.38;;
12206;SDS011;6166;42.806;23.408;2022-07-23T09:08:05;7.47;;;6.72;;
12206;SDS011;6166;42.806;23.408;2022-07-23T09:10:51;7.35;;;6.57;;
12206;SDS011;6166;42.806;23.408;2022-07-23T09:13:24;8.98;;;6.43;;
12206;SDS011;6166;42.806;23.408;2022-07-23T09:16:00;8.55;;;5.72;;
12206;SDS011;6166;42.806;23.408;2022-07-23T09:18:29;7.45;;;5.93;;
12206;SDS011;6166;42.806;23.408;2022-07-23T09:21:07;6.82;;;5.70;;
12206;SDS011;6166;42.806;23.408;2022-07-23T09:23:39;6.85;;;6.22;;
12206;SDS011;6166;42.806;23.408;2022-07-23T09:26:27;9.25;;;6.38;;
12206;SDS011;6166;42.806;23.408;2022-07-23T09:29:01;6.82;;;6.22;;
12206;SDS011;6166;42.806;23.408;2022-07-23T09:31:31;6.78;;;6.03;;
12206;SDS011;6166;42.806;23.408;2022-07-23T09:34:06;10.30;;;6.63;;
12206;SDS011;6166;42.806;23.408;2022-07-23T09:36:33;6.47;;;5.75;;
12206;SDS011;6166;42.806;23.408;2022-07-23T09:39:00;9.57;;;6.60;;
12206;SDS011;6166;42.806;23.408;2022-07-23T09:41:29;10.45;;;6.30;;
12206;SDS011;6166;42.806;23.408;2022-07-23T09:44:07;6.93;;;6.22;;
12206;SDS011;6166;42.806;23.408;2022-07-23T09:46:36;8.07;;;5.85;;
12206;SDS011;6166;42.806;23.408;2022-07-23T09:49:09;10.73;;;6.32;;
12206;SDS011;6166;42.806;23.408;2022-07-23T09:51:43;7.72;;;5.95;;
12206;SDS011;6166;42.806;23.408;2022-07-23T09:54:30;9.35;;;6.25;;
12206;SDS011;6166;42.806;23.408;2022-07-23T09:57:00;11.00;;;6.03;;
12206;SDS011;6166;42.806;23.408;2022-07-23T09:59:31;8.98;;;6.07;;
12206;SDS011;6166;42.806;23.408;2022-07-23T10:02:00;6.93;;;6.18;;
12206;SDS011;6166;42.806;23.408;2022-07-23T10:04:28;6.72;;;5.30;;
12206;SDS011;6166;42.806;23.408;2022-07-23T10:06:57;9.80;;;5.82;;
12206;SDS011;6166;42.806;23.408;2022-07-23T10:09:34;7.32;;;5.63;;
12206;SDS011;6166;42.806;23.408;2022-07-23T10:12:02;7.70;;;5.60;;
12206;SDS011;6166;42.806;23.408;2022-07-23T10:14:48;6.57;;;5.43;;
12206;SDS011;6166;42.806;23.408;2022-07-23T10:17:16;7.45;;;5.68;;
12206;SDS011;6166;42.806;23.408;2022-07-23T10:19:42;6.82;;;5.50;;
12206;SDS011;6166;42.806;23.408;2022-07-23T10:22:10;6.28;;;5.65;;
12206;SDS011;6166;42.806;23.408;2022-07-23T10:30:33;7.95;;;6.22;;
12206;SDS011;6166;42.806;23.408;2022-07-23T10:33:24;8.23;;;6.40;;
12206;SDS011;6166;42.806;23.408;2022-07-23T10:36:01;9.38;;;6.30;;
12206;SDS011;6166;42.806;23.408;2022-07-23T10:38:35;8.45;;;6.10;;
12206;SDS011;6166;42.806;23.408;2022-07-23T10:41:09;7.95;;;6.70;;
12206;SDS011;6166;42.806;23.408;2022-07-23T10:43:36;17.38;;;7.38;;
12206;SDS011;6166;42.806;23.408;2022-07-23T10:46:23;7.63;;;6.22;;
12206;SDS011;6166;42.806;23.408;2022-07-23T10:54:44;10.23;;;6.43;;
12206;SDS011;6166;42.806;23.408;2022-07-23T10:57:12;11.57;;;6.65;;
12206;SDS011;6166;42.806;23.408;2022-07-23T11:02:48;7.00;;;6.25;;
12206;SDS011;6166;42.806;23.408;2022-07-23T11:05:17;8.50;;;6.30;;
12206;SDS011;6166;42.806;23.408;2022-07-23T11:10:47;12.05;;;6.45;;
12206;SDS011;6166;42.806;23.408;2022-07-23T11:13:25;9.52;;;6.80;;
12206;SDS011;6166;42.806;23.408;2022-07-23T11:16:05;7.15;;;6.22;;
12206;SDS011;6166;42.806;23.408;2022-07-23T11:18:56;6.80;;;6.13;;
12206;SDS011;6166;42.806;23.408;2022-07-23T11:21:41;6.32;;;5.35;;
12206;SDS011;6166;42.806;23.408;2022-07-23T11:24:10;7.50;;;5.70;;
12206;SDS011;6166;42.806;23.408;2022-07-23T11:26:49;9.82;;;6.45;;
12206;SDS011;6166;42.806;23.408;2022-07-23T11:32:05;11.40;;;6.35;;
12206;SDS011;6166;42.806;23.408;2022-07-23T11:34:35;11.02;;;6.30;;
12206;SDS011;6166;42.806;23.408;2022-07-23T11:37:06;7.75;;;6.13;;
12206;SDS011;6166;42.806;23.408;2022-07-23T11:39:35;9.13;;;6.03;;
12206;SDS011;6166;42.806;23.408;2022-07-23T11:42:03;8.35;;;5.53;;
12206;SDS011;6166;42.806;23.408;2022-07-23T11:44:32;7.35;;;5.82;;
12206;SDS011;6166;42.806;23.408;2022-07-23T11:47:01;12.32;;;6.13;;
12206;SDS011;6166;42.806;23.408;2022-07-23T11:49:29;6.72;;;5.97;;
12206;SDS011;6166;42.806;23.408;2022-07-23T11:52:04;7.78;;;5.55;;
12206;SDS011;6166;42.806;23.408;2022-07-23T11:54:33;10.32;;;6.30;;
12206;SDS011;6166;42.806;23.408;2022-07-23T11:57:01;11.40;;;6.82;;
12206;SDS011;6166;42.806;23.408;2022-07-23T11:59:30;7.78;;;6.28;;
12206;SDS011;6166;42.806;23.408;2022-07-23T12:01:58;8.10;;;6.05;;
12206;SDS011;6166;42.806;23.408;2022-07-23T12:04:36;8.27;;;5.30;;
12206;SDS011;6166;42.806;23.408;2022-07-23T12:09:59;7.20;;;5.43;;
12206;SDS011;6166;42.806;23.408;2022-07-23T12:12:27;10.70;;;5.75;;
12206;SDS011;6166;42.806;23.408;2022-07-23T12:15:00;8.60;;;6.35;;
12206;SDS011;6166;42.806;23.408;2022-07-23T12:17:28;7.78;;;5.78;;
12206;SDS011;6166;42.806;23.408;2022-07-23T12:19:57;10.05;;;6.20;;
12206;SDS011;6166;42.806;23.408;2022-07-23T12:22:25;7.68;;;5.88;;
12206;SDS011;6166;42.806;23.408;2022-07-23T12:25:02;10.10;;;5.90;;
12206;SDS011;6166;42.806;23.408;2022-07-23T12:27:30;10.68;;;5.93;;
12206;SDS011;6166;42.806;23.408;2022-07-23T12:29:58;9.55;;;6.07;;
12206;SDS011;6166;42.806;23.408;2022-07-23T12:32:25;7.50;;;5.63;;
12206;SDS011;6166;42.806;23.408;2022-07-23T12:35:02;8.40;;;6.10;;
12206;SDS011;6166;42.806;23.408;2022-07-23T12:37:32;7.97;;;5.25;;
12206;SDS011;6166;42.806;23.408;2022-07-23T12:42:47;8.02;;;5.47;;
12206;SDS011;6166;42.806;23.408;2022-07-23T12:45:15;14.65;;;5.88;;
12206;SDS011;6166;42.806;23.408;2022-07-23T12:47:52;10.65;;;6.10;;
12206;SDS011;6166;42.806;23.408;2022-07-23T12:50:43;8.68;;;5.70;;
12206;SDS011;6166;42.806;23.408;2022-07-23T12:53:26;9.10;;;5.47;;
12206;SDS011;6166;42.806;23.408;2022-07-23T12:56:03;11.45;;;5.85;;
12206;SDS011;6166;42.806;23.408;2022-07-23T12:58:42;8.60;;;5.45;;
12206;SDS011;6166;42.806;23.408;2022-07-23T13:01:10;7.68;;;4.95;;
12206;SDS011;6166;42.806;23.408;2022-07-23T13:03:54;16.05;;;5.15;;
12206;SDS011;6166;42.806;23.408;2022-07-23T13:06:23;10.55;;;5.60;;
12206;SDS011;6166;42.806;23.408;2022-07-23T13:08:50;7.85;;;5.03;;
12206;SDS011;6166;42.806;23.408;2022-07-23T13:11:18;11.57;;;5.28;;
12206;SDS011;6166;42.806;23.408;2022-07-23T13:13:45;12.75;;;4.70;;
12206;SDS011;6166;42.806;23.408;2022-07-23T13:16:12;9.25;;;5.15;;
12206;SDS011;6166;42.806;23.408;2022-07-23T13:18:38;10.60;;;5.30;;
12206;SDS011;6166;42.806;23.408;2022-07-23T13:21:05;9.05;;;5.28;;
12206;SDS011;6166;42.806;23.408;2022-07-23T13:23:34;8.88;;;5.35;;
12206;SDS011;6166;42.806;23.408;2022-07-23T13:26:01;7.93;;;5.28;;
12206;SDS011;6166;42.806;23.408;2022-07-23T13:28:30;11.77;;;5.43;;
12206;SDS011;6166;42.806;23.408;2022-07-23T13:30:57;9.75;;;5.95;;
12206;SDS011;6166;42.806;23.408;2022-07-23T13:33:24;9.88;;;5.63;;
12206;SDS011;6166;42.806;23.408;2022-07-23T13:35:51;11.60;;;5.80;;
12206;SDS011;6166;42.806;23.408;2022-07-23T13:38:20;7.72;;;5.70;;
12206;SDS011;6166;42.806;23.408;2022-07-23T13:40:49;8.63;;;5.25;;
12206;SDS011;6166;42.806;23.408;2022-07-23T13:43:18;10.40;;;5.35;;
12206;SDS011;6166;42.806;23.408;2022-07-23T13:45:48;9.15;;;4.97;;
12206;SDS011;6166;42.806;23.408;2022-07-23T13:48:16;9.15;;;5.35;;
12206;SDS011;6166;42.806;23.408;2022-07-23T13:50:43;10.90;;;5.40;;
12206;SDS011;6166;42.806;23.408;2022-07-23T13:53:12;8.73;;;5.05;;
12206;SDS011;6166;42.806;23.408;2022-07-23T13:55:40;8.73;;;5.07;;
12206;SDS011;6166;42.806;23.408;2022-07-23T13:58:08;10.88;;;5.88;;
12206;SDS011;6166;42.806;23.408;2022-07-23T14:00:37;9.20;;;5.80;;
12206;SDS011;6166;42.806;23.408;2022-07-23T14:03:06;13.85;;;5.85;;
12206;SDS011;6166;42.806;23.408;2022-07-23T14:05:33;9.52;;;5.40;;
12206;SDS011;6166;42.806;23.408;2022-07-23T14:08:00;9.65;;;6.38;;
12206;SDS011;6166;42.806;23.408;2022-07-23T14:10:27;11.38;;;6.88;;
12206;SDS011;6166;42.806;23.408;2022-07-23T14:12:54;8.10;;;5.97;;
12206;SDS011;6166;42.806;23.408;2022-07-23T14:15:23;9.82;;;6.55;;
12206;SDS011;6166;42.806;23.408;2022-07-23T14:17:52;13.18;;;6.53;;
12206;SDS011;6166;42.806;23.408;2022-07-23T14:20:21;8.25;;;6.00;;
12206;SDS011;6166;42.806;23.408;2022-07-23T14:22:48;11.38;;;5.95;;
12206;SDS011;6166;42.806;23.408;2022-07-23T14:25:16;8.77;;;6.22;;
12206;SDS011;6166;42.806;23.408;2022-07-23T14:27:43;10.63;;;6.57;;
12206;SDS011;6166;42.806;23.408;2022-07-23T14:30:11;7.60;;;6.05;;
12206;SDS011;6166;42.806;23.408;2022-07-23T14:32:40;8.73;;;6.03;;
12206;SDS011;6166;42.806;23.408;2022-07-23T14:35:07;10.77;;;6.57;;
12206;SDS011;6166;42.806;23.408;2022-07-23T14:37:35;9.18;;;5.90;;
12206;SDS011;6166;42.806;23.408;2022-07-23T14:40:02;6.70;;;6.10;;
12206;SDS011;6166;42.806;23.408;2022-07-23T14:42:29;7.53;;;5.97;;
12206;SDS011;6166;42.806;23.408;2022-07-23T14:44:56;7.45;;;6.05;;
12206;SDS011;6166;42.806;23.408;2022-07-23T14:47:23;8.65;;;6.32;;
12206;SDS011;6166;42.806;23.408;2022-07-23T14:49:50;12.48;;;6.30;;
12206;SDS011;6166;42.806;23.408;2022-07-23T14:52:16;9.80;;;6.60;;
12206;SDS011;6166;42.806;23.408;2022-07-23T14:54:45;9.80;;;6.25;;
12206;SDS011;6166;42.806;23.408;2022-07-23T14:57:12;12.23;;;8.30;;
12206;SDS011;6166;42.806;23.408;2022-07-23T14:59:39;9.38;;;7.00;;
12206;SDS011;6166;42.806;23.408;2022-07-23T15:02:07;8.02;;;5.88;;
12206;SDS011;6166;42.806;23.408;2022-07-23T15:04:34;9.45;;;5.90;;
12206;SDS011;6166;42.806;23.408;2022-07-23T15:07:00;8.43;;;6.00;;
12206;SDS011;6166;42.806;23.408;2022-07-23T15:09:28;7.53;;;5.78;;
12206;SDS011;6166;42.806;23.408;2022-07-23T15:11:56;9.02;;;6.03;;
12206;SDS011;6166;42.806;23.408;2022-07-23T15:14:23;10.50;;;6.22;;
12206;SDS011;6166;42.806;23.408;2022-07-23T15:16:49;10.82;;;6.20;;
12206;SDS011;6166;42.806;23.408;2022-07-23T15:19:17;9.40;;;6.57;;
12206;SDS011;6166;42.806;23.408;2022-07-23T15:21:43;10.07;;;6.93;;
12206;SDS011;6166;42.806;23.408;2022-07-23T15:24:10;10.18;;;6.45;;
12206;SDS011;6166;42.806;23.408;2022-07-23T15:26:37;8.00;;;5.53;;
12206;SDS011;6166;42.806;23.408;2022-07-23T15:29:05;9.35;;;6.40;;
12206;SDS011;6166;42.806;23.408;2022-07-23T15:31:32;12.75;;;7.05;;
12206;SDS011;6166;42.806;23.408;2022-07-23T15:33:59;11.55;;;6.28;;
12206;SDS011;6166;42.806;23.408;2022-07-23T15:36:26;19.50;;;12.30;;